Impacts TAF Board INFO
FOR SITUATIONAL AWARENESS. NOT TO BE USED FOR FLIGHT PLANNING PURPOSES.
IDs:

KDCA - Washington/National, VA, US

Issued at 0059 UTC 18 Jan 2018
Updated at 0418 UTC 18 Jan 2018
Potential Impact None Slight Moderate High
Time<<18/17Z 18/18Z 18/19Z 18/20Z 18/21Z 18/22Z 18/23Z 19/00Z 19/01Z 19/02Z 19/03Z 19/04Z 19/05Z>>
Type PRVL PRVL PRVL PRVL PRVL PRVL PRVL PRVL PRVL PRVL PRVL PRVL PRVL
VIS >6 >6 >6 >6 >6 >6 >6 >6 >6 >6 >6 >6 >6
CIG -- -- -- -- -- -- -- -- -- -- -- -- --
Cover FEW FEW FEW FEW FEW FEW SKC SKC SKC SKC SKC SKC SKC
FltCat VFR VFR VFR VFR VFR VFR VFR VFR VFR VFR VFR VFR VFR
WX -- -- -- -- -- -- -- -- -- -- -- -- --
WDir 280 280 280 280 280 280 270 270 270 270 270 VRB VRB
WSpd 10 10 10 10 10 10 7 7 7 7 7 3 3
WGst 18 18 18 18 18 18 -- -- -- -- -- -- --

Raw TAF
KDCA 180059Z 1801/1906 33012G19KT P6SM BKN070
  FM180600 30009KT P6SM FEW100 FEW250
  FM181500 28010G18KT P6SM FEW150
  FM182300 27007KT P6SM SKC
  FM190400 VRB03KT P6SM SKC


METAR Board
Radar Display
Forecast Discussion

FOR SITUATIONAL AWARENESS. NOT TO BE USED FOR FLIGHT PLANNING PURPOSES.